sensor_id;sensor_type;location;lat;lon;timestamp;temperature;humidity
2497;DHT22;1259;48.306;14.374;2023-05-29T00:01:17;15.70;72.00
2497;DHT22;1259;48.306;14.374;2023-05-29T00:03:46;15.70;72.20
2497;DHT22;1259;48.306;14.374;2023-05-29T00:06:13;15.70;72.50
2497;DHT22;1259;48.306;14.374;2023-05-29T00:08:39;15.70;72.60
2497;DHT22;1259;48.306;14.374;2023-05-29T00:11:06;15.60;72.60
2497;DHT22;1259;48.306;14.374;2023-05-29T00:13:33;15.70;72.70
2497;DHT22;1259;48.306;14.374;2023-05-29T00:16:01;15.70;72.70
2497;DHT22;1259;48.306;14.374;2023-05-29T00:18:28;15.70;72.60
2497;DHT22;1259;48.306;14.374;2023-05-29T00:20:55;15.70;72.50
2497;DHT22;1259;48.306;14.374;2023-05-29T00:23:22;15.70;72.90
2497;DHT22;1259;48.306;14.374;2023-05-29T00:25:49;15.70;72.80
2497;DHT22;1259;48.306;14.374;2023-05-29T00:28:16;15.70;72.80
2497;DHT22;1259;48.306;14.374;2023-05-29T00:30:42;15.70;72.80
2497;DHT22;1259;48.306;14.374;2023-05-29T00:33:10;15.50;73.60
2497;DHT22;1259;48.306;14.374;2023-05-29T00:35:37;15.30;74.50
2497;DHT22;1259;48.306;14.374;2023-05-29T00:38:04;15.30;74.90
2497;DHT22;1259;48.306;14.374;2023-05-29T00:40:31;15.30;75.00
2497;DHT22;1259;48.306;14.374;2023-05-29T00:42:57;15.20;75.50
2497;DHT22;1259;48.306;14.374;2023-05-29T00:45:24;15.20;75.30
2497;DHT22;1259;48.306;14.374;2023-05-29T00:47:51;15.20;75.60
2497;DHT22;1259;48.306;14.374;2023-05-29T00:50:20;15.20;75.50
2497;DHT22;1259;48.306;14.374;2023-05-29T00:52:49;15.10;75.80
2497;DHT22;1259;48.306;14.374;2023-05-29T00:55:16;15.10;75.70
2497;DHT22;1259;48.306;14.374;2023-05-29T00:57:43;15.10;76.10
2497;DHT22;1259;48.306;14.374;2023-05-29T01:00:11;15.10;75.90
2497;DHT22;1259;48.306;14.374;2023-05-29T01:02:39;15.00;76.00
2497;DHT22;1259;48.306;14.374;2023-05-29T01:05:09;15.00;76.50
2497;DHT22;1259;48.306;14.374;2023-05-29T01:07:38;15.00;76.50
2497;DHT22;1259;48.306;14.374;2023-05-29T01:10:05;15.00;76.90
2497;DHT22;1259;48.306;14.374;2023-05-29T01:12:33;15.00;76.80
2497;DHT22;1259;48.306;14.374;2023-05-29T01:15:21;14.90;76.70
2497;DHT22;1259;48.306;14.374;2023-05-29T01:17:53;14.90;76.80
2497;DHT22;1259;48.306;14.374;2023-05-29T01:20:24;14.90;77.10
2497;DHT22;1259;48.306;14.374;2023-05-29T01:22:58;14.90;77.00
2497;DHT22;1259;48.306;14.374;2023-05-29T01:25:29;14.90;77.10
2497;DHT22;1259;48.306;14.374;2023-05-29T01:28:02;14.90;77.50
2497;DHT22;1259;48.306;14.374;2023-05-29T01:30:30;14.90;77.20
2497;DHT22;1259;48.306;14.374;2023-05-29T01:32:58;14.80;77.30
2497;DHT22;1259;48.306;14.374;2023-05-29T01:35:25;14.80;77.60
2497;DHT22;1259;48.306;14.374;2023-05-29T01:37:51;14.80;77.70
2497;DHT22;1259;48.306;14.374;2023-05-29T01:40:18;14.80;77.90
2497;DHT22;1259;48.306;14.374;2023-05-29T01:42:45;14.80;78.00
2497;DHT22;1259;48.306;14.374;2023-05-29T01:45:13;14.70;78.20
2497;DHT22;1259;48.306;14.374;2023-05-29T01:47:40;14.70;78.10
2497;DHT22;1259;48.306;14.374;2023-05-29T01:50:07;14.70;77.90
2497;DHT22;1259;48.306;14.374;2023-05-29T01:52:34;14.70;77.80
2497;DHT22;1259;48.306;14.374;2023-05-29T01:55:01;14.60;78.00
2497;DHT22;1259;48.306;14.374;2023-05-29T01:57:28;14.60;77.90
2497;DHT22;1259;48.306;14.374;2023-05-29T01:59:55;14.60;78.00
2497;DHT22;1259;48.306;14.374;2023-05-29T02:02:23;14.60;77.90
2497;DHT22;1259;48.306;14.374;2023-05-29T02:04:50;14.60;78.20
2497;DHT22;1259;48.306;14.374;2023-05-29T02:07:17;14.60;78.00
2497;DHT22;1259;48.306;14.374;2023-05-29T02:09:44;14.40;78.50
2497;DHT22;1259;48.306;14.374;2023-05-29T02:12:11;14.40;78.20
2497;DHT22;1259;48.306;14.374;2023-05-29T02:14:38;14.50;78.10
2497;DHT22;1259;48.306;14.374;2023-05-29T02:17:05;14.50;77.80
2497;DHT22;1259;48.306;14.374;2023-05-29T02:19:33;14.50;77.60
2497;DHT22;1259;48.306;14.374;2023-05-29T02:22:01;14.60;77.50
2497;DHT22;1259;48.306;14.374;2023-05-29T02:24:27;14.60;77.20
2497;DHT22;1259;48.306;14.374;2023-05-29T02:26:54;14.60;77.20
2497;DHT22;1259;48.306;14.374;2023-05-29T02:29:21;14.50;77.00
2497;DHT22;1259;48.306;14.374;2023-05-29T02:31:47;14.60;76.80
2497;DHT22;1259;48.306;14.374;2023-05-29T02:34:14;14.50;77.10
2497;DHT22;1259;48.306;14.374;2023-05-29T02:36:42;14.40;77.20
2497;DHT22;1259;48.306;14.374;2023-05-29T02:39:09;14.50;77.40
2497;DHT22;1259;48.306;14.374;2023-05-29T02:41:36;14.50;77.00
2497;DHT22;1259;48.306;14.374;2023-05-29T02:44:03;14.40;77.20
2497;DHT22;1259;48.306;14.374;2023-05-29T02:46:29;14.40;77.40
2497;DHT22;1259;48.306;14.374;2023-05-29T02:48:56;14.30;77.70
2497;DHT22;1259;48.306;14.374;2023-05-29T02:51:23;14.30;77.30
2497;DHT22;1259;48.306;14.374;2023-05-29T02:53:51;14.30;77.40
2497;DHT22;1259;48.306;14.374;2023-05-29T02:56:17;14.40;77.30
2497;DHT22;1259;48.306;14.374;2023-05-29T02:58:49;14.30;77.40
2497;DHT22;1259;48.306;14.374;2023-05-29T03:01:15;14.20;77.50
2497;DHT22;1259;48.306;14.374;2023-05-29T03:03:42;14.30;77.40
2497;DHT22;1259;48.306;14.374;2023-05-29T03:06:09;14.20;77.70
2497;DHT22;1259;48.306;14.374;2023-05-29T03:08:37;14.10;78.20
2497;DHT22;1259;48.306;14.374;2023-05-29T03:11:07;14.00;78.80
2497;DHT22;1259;48.306;14.374;2023-05-29T03:13:34;13.90;79.10
2497;DHT22;1259;48.306;14.374;2023-05-29T03:16:01;13.90;79.80
2497;DHT22;1259;48.306;14.374;2023-05-29T03:18:28;13.80;79.80
2497;DHT22;1259;48.306;14.374;2023-05-29T03:20:55;13.80;80.00
2497;DHT22;1259;48.306;14.374;2023-05-29T03:23:22;13.80;80.20
2497;DHT22;1259;48.306;14.374;2023-05-29T03:25:48;13.80;80.30
2497;DHT22;1259;48.306;14.374;2023-05-29T03:28:16;14.00;79.80
2497;DHT22;1259;48.306;14.374;2023-05-29T03:30:43;13.90;79.60
2497;DHT22;1259;48.306;14.374;2023-05-29T03:33:10;14.00;79.40
2497;DHT22;1259;48.306;14.374;2023-05-29T03:35:37;14.00;79.20
2497;DHT22;1259;48.306;14.374;2023-05-29T03:38:03;14.10;79.10
2497;DHT22;1259;48.306;14.374;2023-05-29T03:40:30;14.10;79.10
2497;DHT22;1259;48.306;14.374;2023-05-29T03:42:56;14.10;79.60
2497;DHT22;1259;48.306;14.374;2023-05-29T03:45:24;14.10;79.70
2497;DHT22;1259;48.306;14.374;2023-05-29T03:47:51;14.10;80.00
2497;DHT22;1259;48.306;14.374;2023-05-29T03:50:18;14.10;79.90
2497;DHT22;1259;48.306;14.374;2023-05-29T03:52:44;14.00;80.00
2497;DHT22;1259;48.306;14.374;2023-05-29T03:55:12;14.10;80.20
2497;DHT22;1259;48.306;14.374;2023-05-29T03:57:40;14.10;80.40
2497;DHT22;1259;48.306;14.374;2023-05-29T04:00:07;14.00;80.40
2497;DHT22;1259;48.306;14.374;2023-05-29T04:02:36;14.00;80.90
2497;DHT22;1259;48.306;14.374;2023-05-29T04:05:03;14.00;81.90
2497;DHT22;1259;48.306;14.374;2023-05-29T04:07:31;13.90;81.20
2497;DHT22;1259;48.306;14.374;2023-05-29T04:09:58;13.90;83.00
2497;DHT22;1259;48.306;14.374;2023-05-29T04:12:24;13.90;82.30
2497;DHT22;1259;48.306;14.374;2023-05-29T04:14:51;13.90;82.90
2497;DHT22;1259;48.306;14.374;2023-05-29T04:17:18;14.00;82.60
2497;DHT22;1259;48.306;14.374;2023-05-29T04:19:46;14.10;82.50
2497;DHT22;1259;48.306;14.374;2023-05-29T04:22:13;14.20;82.30
2497;DHT22;1259;48.306;14.374;2023-05-29T04:24:39;14.20;82.20
2497;DHT22;1259;48.306;14.374;2023-05-29T04:27:07;14.30;81.50
2497;DHT22;1259;48.306;14.374;2023-05-29T04:29:34;14.30;82.00
2497;DHT22;1259;48.306;14.374;2023-05-29T04:32:01;14.40;82.30
2497;DHT22;1259;48.306;14.374;2023-05-29T04:34:28;14.50;81.70
2497;DHT22;1259;48.306;14.374;2023-05-29T04:36:57;14.50;82.10
2497;DHT22;1259;48.306;14.374;2023-05-29T04:39:24;14.60;83.30
2497;DHT22;1259;48.306;14.374;2023-05-29T04:41:50;14.70;82.40
2497;DHT22;1259;48.306;14.374;2023-05-29T04:44:17;14.80;82.80
2497;DHT22;1259;48.306;14.374;2023-05-29T04:46:44;14.70;82.30
2497;DHT22;1259;48.306;14.374;2023-05-29T04:49:12;14.70;83.20
2497;DHT22;1259;48.306;14.374;2023-05-29T04:51:39;14.60;91.30
2497;DHT22;1259;48.306;14.374;2023-05-29T04:54:07;14.30;93.30
2497;DHT22;1259;48.306;14.374;2023-05-29T04:56:35;14.30;93.60
2497;DHT22;1259;48.306;14.374;2023-05-29T04:59:02;14.30;93.90
2497;DHT22;1259;48.306;14.374;2023-05-29T05:01:28;14.20;91.30
2497;DHT22;1259;48.306;14.374;2023-05-29T05:03:58;14.30;91.40
2497;DHT22;1259;48.306;14.374;2023-05-29T05:06:25;14.40;90.20
2497;DHT22;1259;48.306;14.374;2023-05-29T05:08:52;14.50;90.60
2497;DHT22;1259;48.306;14.374;2023-05-29T05:11:21;14.60;90.00
2497;DHT22;1259;48.306;14.374;2023-05-29T05:13:48;14.70;89.70
2497;DHT22;1259;48.306;14.374;2023-05-29T05:16:14;14.70;88.90
2497;DHT22;1259;48.306;14.374;2023-05-29T05:18:41;14.70;90.00
2497;DHT22;1259;48.306;14.374;2023-05-29T05:21:08;14.70;91.80
2497;DHT22;1259;48.306;14.374;2023-05-29T05:23:35;14.70;91.50
2497;DHT22;1259;48.306;14.374;2023-05-29T05:26:02;14.70;91.50
2497;DHT22;1259;48.306;14.374;2023-05-29T05:28:30;14.70;92.10
2497;DHT22;1259;48.306;14.374;2023-05-29T05:30:57;14.60;92.30
2497;DHT22;1259;48.306;14.374;2023-05-29T05:33:23;14.70;92.30
2497;DHT22;1259;48.306;14.374;2023-05-29T05:35:50;14.60;93.50
2497;DHT22;1259;48.306;14.374;2023-05-29T05:38:17;14.60;94.20
2497;DHT22;1259;48.306;14.374;2023-05-29T05:40:43;14.70;95.20
2497;DHT22;1259;48.306;14.374;2023-05-29T05:43:10;14.80;95.10
2497;DHT22;1259;48.306;14.374;2023-05-29T05:45:38;15.00;95.20
2497;DHT22;1259;48.306;14.374;2023-05-29T05:48:07;15.20;93.40
2497;DHT22;1259;48.306;14.374;2023-05-29T05:50:34;15.30;94.00
2497;DHT22;1259;48.306;14.374;2023-05-29T05:53:00;15.20;95.00
2497;DHT22;1259;48.306;14.374;2023-05-29T05:55:27;15.30;95.80
2497;DHT22;1259;48.306;14.374;2023-05-29T05:57:54;15.20;95.70
2497;DHT22;1259;48.306;14.374;2023-05-29T06:00:22;15.20;94.80
2497;DHT22;1259;48.306;14.374;2023-05-29T06:02:50;15.30;94.30
2497;DHT22;1259;48.306;14.374;2023-05-29T06:05:17;15.50;95.30
2497;DHT22;1259;48.306;14.374;2023-05-29T06:07:44;15.50;92.20
2497;DHT22;1259;48.306;14.374;2023-05-29T06:10:11;15.50;93.20
2497;DHT22;1259;48.306;14.374;2023-05-29T06:12:38;15.40;91.90
2497;DHT22;1259;48.306;14.374;2023-05-29T06:15:05;15.60;93.10
2497;DHT22;1259;48.306;14.374;2023-05-29T06:17:32;15.70;92.30
2497;DHT22;1259;48.306;14.374;2023-05-29T06:20:01;15.80;92.30
2497;DHT22;1259;48.306;14.374;2023-05-29T06:22:29;16.00;92.60
2497;DHT22;1259;48.306;14.374;2023-05-29T06:24:56;16.10;92.00
2497;DHT22;1259;48.306;14.374;2023-05-29T06:27:22;16.30;91.50
2497;DHT22;1259;48.306;14.374;2023-05-29T06:29:51;16.30;91.70
2497;DHT22;1259;48.306;14.374;2023-05-29T06:32:17;16.60;90.40
2497;DHT22;1259;48.306;14.374;2023-05-29T06:34:44;16.80;91.10
2497;DHT22;1259;48.306;14.374;2023-05-29T06:37:12;16.70;89.30
2497;DHT22;1259;48.306;14.374;2023-05-29T06:39:39;16.80;86.00
2497;DHT22;1259;48.306;14.374;2023-05-29T06:42:07;16.80;86.50
2497;DHT22;1259;48.306;14.374;2023-05-29T06:44:34;16.90;87.10
2497;DHT22;1259;48.306;14.374;2023-05-29T06:47:00;17.10;87.40
2497;DHT22;1259;48.306;14.374;2023-05-29T06:49:27;17.30;88.80
2497;DHT22;1259;48.306;14.374;2023-05-29T06:51:54;17.40;91.80
2497;DHT22;1259;48.306;14.374;2023-05-29T06:54:22;17.90;90.40
2497;DHT22;1259;48.306;14.374;2023-05-29T06:56:48;18.10;86.90
2497;DHT22;1259;48.306;14.374;2023-05-29T06:59:16;18.10;82.60
2497;DHT22;1259;48.306;14.374;2023-05-29T07:01:43;18.10;82.30
2497;DHT22;1259;48.306;14.374;2023-05-29T07:04:11;18.10;81.50
2497;DHT22;1259;48.306;14.374;2023-05-29T07:06:37;18.70;85.90
2497;DHT22;1259;48.306;14.374;2023-05-29T07:09:04;19.20;80.50
2497;DHT22;1259;48.306;14.374;2023-05-29T07:11:32;18.80;78.40
2497;DHT22;1259;48.306;14.374;2023-05-29T07:13:59;18.90;81.90
2497;DHT22;1259;48.306;14.374;2023-05-29T07:16:25;18.50;78.30
2497;DHT22;1259;48.306;14.374;2023-05-29T07:18:52;18.50;79.10
2497;DHT22;1259;48.306;14.374;2023-05-29T07:21:19;18.60;83.60
2497;DHT22;1259;48.306;14.374;2023-05-29T07:23:45;18.70;82.70
2497;DHT22;1259;48.306;14.374;2023-05-29T07:26:12;19.30;81.30
2497;DHT22;1259;48.306;14.374;2023-05-29T07:28:40;19.70;80.60
2497;DHT22;1259;48.306;14.374;2023-05-29T07:31:07;20.10;81.90
2497;DHT22;1259;48.306;14.374;2023-05-29T07:33:33;20.30;81.30
2497;DHT22;1259;48.306;14.374;2023-05-29T07:36:00;20.60;79.80
2497;DHT22;1259;48.306;14.374;2023-05-29T07:38:27;20.80;76.50
2497;DHT22;1259;48.306;14.374;2023-05-29T07:40:53;20.90;75.90
2497;DHT22;1259;48.306;14.374;2023-05-29T07:43:20;20.80;79.30
2497;DHT22;1259;48.306;14.374;2023-05-29T07:45:48;20.90;78.20
2497;DHT22;1259;48.306;14.374;2023-05-29T07:48:15;20.70;77.80
2497;DHT22;1259;48.306;14.374;2023-05-29T07:50:41;20.80;78.80
2497;DHT22;1259;48.306;14.374;2023-05-29T07:53:08;20.70;78.20
2497;DHT22;1259;48.306;14.374;2023-05-29T07:55:35;20.10;73.10
2497;DHT22;1259;48.306;14.374;2023-05-29T07:58:02;19.90;72.50
2497;DHT22;1259;48.306;14.374;2023-05-29T08:00:28;19.70;72.90
2497;DHT22;1259;48.306;14.374;2023-05-29T08:02:56;20.30;75.50
2497;DHT22;1259;48.306;14.374;2023-05-29T08:05:23;20.70;76.20
2497;DHT22;1259;48.306;14.374;2023-05-29T08:07:50;20.50;72.80
2497;DHT22;1259;48.306;14.374;2023-05-29T08:10:17;20.60;75.40
2497;DHT22;1259;48.306;14.374;2023-05-29T08:12:43;21.00;74.30
2497;DHT22;1259;48.306;14.374;2023-05-29T08:15:10;21.00;71.70
2497;DHT22;1259;48.306;14.374;2023-05-29T08:17:37;20.80;77.50
2497;DHT22;1259;48.306;14.374;2023-05-29T08:20:06;20.90;76.10
2497;DHT22;1259;48.306;14.374;2023-05-29T08:22:35;21.50;76.70
2497;DHT22;1259;48.306;14.374;2023-05-29T08:25:02;21.70;73.00
2497;DHT22;1259;48.306;14.374;2023-05-29T08:27:28;22.10;73.40
2497;DHT22;1259;48.306;14.374;2023-05-29T08:29:56;22.30;72.90
2497;DHT22;1259;48.306;14.374;2023-05-29T08:32:22;21.60;70.90
2497;DHT22;1259;48.306;14.374;2023-05-29T08:34:49;21.50;75.60
2497;DHT22;1259;48.306;14.374;2023-05-29T08:37:17;22.10;73.60
2497;DHT22;1259;48.306;14.374;2023-05-29T08:39:45;22.30;73.60
2497;DHT22;1259;48.306;14.374;2023-05-29T08:42:12;21.90;70.90
2497;DHT22;1259;48.306;14.374;2023-05-29T08:44:40;22.40;74.60
2497;DHT22;1259;48.306;14.374;2023-05-29T08:47:07;21.90;70.70
2497;DHT22;1259;48.306;14.374;2023-05-29T08:49:38;22.00;76.20
2497;DHT22;1259;48.306;14.374;2023-05-29T08:52:08;22.50;74.20
2497;DHT22;1259;48.306;14.374;2023-05-29T08:54:37;22.90;71.60
2497;DHT22;1259;48.306;14.374;2023-05-29T08:57:04;23.10;69.80
2497;DHT22;1259;48.306;14.374;2023-05-29T08:59:31;22.50;72.80
2497;DHT22;1259;48.306;14.374;2023-05-29T09:01:59;22.40;69.90
2497;DHT22;1259;48.306;14.374;2023-05-29T09:04:27;22.80;70.80
2497;DHT22;1259;48.306;14.374;2023-05-29T09:06:55;23.00;70.90
2497;DHT22;1259;48.306;14.374;2023-05-29T09:09:22;22.90;67.80
2497;DHT22;1259;48.306;14.374;2023-05-29T09:11:53;22.70;72.80
2497;DHT22;1259;48.306;14.374;2023-05-29T09:14:32;22.80;73.10
2497;DHT22;1259;48.306;14.374;2023-05-29T09:17:00;22.90;70.20
2497;DHT22;1259;48.306;14.374;2023-05-29T09:19:27;23.00;71.30
2497;DHT22;1259;48.306;14.374;2023-05-29T09:21:59;23.40;70.60
2497;DHT22;1259;48.306;14.374;2023-05-29T09:24:26;23.50;68.90
2497;DHT22;1259;48.306;14.374;2023-05-29T09:26:55;23.70;67.60
2497;DHT22;1259;48.306;14.374;2023-05-29T09:29:22;23.80;68.80
2497;DHT22;1259;48.306;14.374;2023-05-29T09:31:50;23.80;64.80
2497;DHT22;1259;48.306;14.374;2023-05-29T09:34:17;23.90;67.90
2497;DHT22;1259;48.306;14.374;2023-05-29T09:36:44;24.10;67.40
2497;DHT22;1259;48.306;14.374;2023-05-29T09:39:10;23.50;68.10
2497;DHT22;1259;48.306;14.374;2023-05-29T09:41:42;23.70;68.50
2497;DHT22;1259;48.306;14.374;2023-05-29T09:44:13;23.30;64.70
2497;DHT22;1259;48.306;14.374;2023-05-29T09:46:40;23.70;67.20
2497;DHT22;1259;48.306;14.374;2023-05-29T09:49:11;24.00;67.80
2497;DHT22;1259;48.306;14.374;2023-05-29T09:51:38;24.00;63.30
2497;DHT22;1259;48.306;14.374;2023-05-29T09:54:14;24.10;66.80
2497;DHT22;1259;48.306;14.374;2023-05-29T09:56:42;24.20;65.20
2497;DHT22;1259;48.306;14.374;2023-05-29T09:59:09;24.50;66.20
2497;DHT22;1259;48.306;14.374;2023-05-29T10:01:38;24.50;63.90
2497;DHT22;1259;48.306;14.374;2023-05-29T10:04:07;24.50;66.30
2497;DHT22;1259;48.306;14.374;2023-05-29T10:06:35;24.10;65.70
2497;DHT22;1259;48.306;14.374;2023-05-29T10:09:02;24.30;64.70
2497;DHT22;1259;48.306;14.374;2023-05-29T10:11:30;23.90;65.00
2497;DHT22;1259;48.306;14.374;2023-05-29T10:13:58;24.30;65.30
2497;DHT22;1259;48.306;14.374;2023-05-29T10:16:26;24.30;66.40
2497;DHT22;1259;48.306;14.374;2023-05-29T10:18:55;24.10;66.70
2497;DHT22;1259;48.306;14.374;2023-05-29T10:21:23;24.20;65.40
2497;DHT22;1259;48.306;14.374;2023-05-29T10:23:51;24.30;65.10
2497;DHT22;1259;48.306;14.374;2023-05-29T10:26:19;24.60;63.80
2497;DHT22;1259;48.306;14.374;2023-05-29T10:28:48;24.60;61.30
2497;DHT22;1259;48.306;14.374;2023-05-29T10:31:17;24.50;63.40
2497;DHT22;1259;48.306;14.374;2023-05-29T10:33:48;24.50;66.00
2497;DHT22;1259;48.306;14.374;2023-05-29T10:36:21;24.80;66.70
2497;DHT22;1259;48.306;14.374;2023-05-29T10:38:49;25.00;66.20
2497;DHT22;1259;48.306;14.374;2023-05-29T10:41:30;24.90;63.60
2497;DHT22;1259;48.306;14.374;2023-05-29T10:43:58;25.10;65.80
2497;DHT22;1259;48.306;14.374;2023-05-29T10:49:23;25.00;65.40
2497;DHT22;1259;48.306;14.374;2023-05-29T10:51:51;23.90;64.30
2497;DHT22;1259;48.306;14.374;2023-05-29T10:54:18;24.10;63.80
2497;DHT22;1259;48.306;14.374;2023-05-29T10:56:51;23.10;65.70
2497;DHT22;1259;48.306;14.374;2023-05-29T10:59:20;23.90;68.00
2497;DHT22;1259;48.306;14.374;2023-05-29T11:01:46;24.20;69.40
2497;DHT22;1259;48.306;14.374;2023-05-29T11:04:25;24.50;66.20
2497;DHT22;1259;48.306;14.374;2023-05-29T11:06:54;24.30;65.40
2497;DHT22;1259;48.306;14.374;2023-05-29T11:09:28;24.10;64.30
2497;DHT22;1259;48.306;14.374;2023-05-29T11:12:11;24.30;64.10
2497;DHT22;1259;48.306;14.374;2023-05-29T11:14:44;24.50;62.20
2497;DHT22;1259;48.306;14.374;2023-05-29T11:19:52;24.50;64.40
2497;DHT22;1259;48.306;14.374;2023-05-29T11:22:23;24.60;65.10
2497;DHT22;1259;48.306;14.374;2023-05-29T11:24:52;24.40;63.20
2497;DHT22;1259;48.306;14.374;2023-05-29T11:27:19;24.50;65.70
2497;DHT22;1259;48.306;14.374;2023-05-29T11:29:46;24.70;64.60
2497;DHT22;1259;48.306;14.374;2023-05-29T11:32:19;24.20;66.50
2497;DHT22;1259;48.306;14.374;2023-05-29T11:34:47;24.00;62.10
2497;DHT22;1259;48.306;14.374;2023-05-29T11:37:14;24.10;65.00
2497;DHT22;1259;48.306;14.374;2023-05-29T11:39:42;24.40;65.30
2497;DHT22;1259;48.306;14.374;2023-05-29T11:42:09;24.30;66.40
2497;DHT22;1259;48.306;14.374;2023-05-29T11:44:35;24.30;64.20
2497;DHT22;1259;48.306;14.374;2023-05-29T11:47:02;23.70;61.70
2497;DHT22;1259;48.306;14.374;2023-05-29T11:49:30;23.90;64.10
2497;DHT22;1259;48.306;14.374;2023-05-29T11:52:05;24.10;65.70
2497;DHT22;1259;48.306;14.374;2023-05-29T11:54:32;24.50;66.80
2497;DHT22;1259;48.306;14.374;2023-05-29T11:57:01;24.50;65.80
2497;DHT22;1259;48.306;14.374;2023-05-29T11:59:30;24.10;64.80
2497;DHT22;1259;48.306;14.374;2023-05-29T12:01:57;23.90;62.50
2497;DHT22;1259;48.306;14.374;2023-05-29T12:04:23;23.50;61.30
2497;DHT22;1259;48.306;14.374;2023-05-29T12:06:50;23.40;65.50
2497;DHT22;1259;48.306;14.374;2023-05-29T12:09:24;23.50;65.70
2497;DHT22;1259;48.306;14.374;2023-05-29T12:11:51;24.00;66.50
2497;DHT22;1259;48.306;14.374;2023-05-29T12:14:20;24.00;64.90
2497;DHT22;1259;48.306;14.374;2023-05-29T12:16:46;23.80;65.90
2497;DHT22;1259;48.306;14.374;2023-05-29T12:19:13;23.10;62.20
2497;DHT22;1259;48.306;14.374;2023-05-29T12:21:41;23.20;62.50
2497;DHT22;1259;48.306;14.374;2023-05-29T12:24:07;23.40;64.60
2497;DHT22;1259;48.306;14.374;2023-05-29T12:26:35;23.40;65.80
2497;DHT22;1259;48.306;14.374;2023-05-29T12:29:02;23.60;64.20
2497;DHT22;1259;48.306;14.374;2023-05-29T12:31:30;23.00;62.80
2497;DHT22;1259;48.306;14.374;2023-05-29T12:34:01;23.00;64.20
2497;DHT22;1259;48.306;14.374;2023-05-29T12:36:28;23.50;63.60
2497;DHT22;1259;48.306;14.374;2023-05-29T12:38:55;23.90;61.70
2497;DHT22;1259;48.306;14.374;2023-05-29T12:41:23;23.90;60.10
2497;DHT22;1259;48.306;14.374;2023-05-29T12:43:52;24.10;64.60
2497;DHT22;1259;48.306;14.374;2023-05-29T12:46:19;24.40;64.30
2497;DHT22;1259;48.306;14.374;2023-05-29T12:48:47;24.50;64.10
2497;DHT22;1259;48.306;14.374;2023-05-29T12:51:15;24.30;64.60
2497;DHT22;1259;48.306;14.374;2023-05-29T12:53:41;24.10;63.80
2497;DHT22;1259;48.306;14.374;2023-05-29T12:56:08;23.80;66.80
2497;DHT22;1259;48.306;14.374;2023-05-29T12:58:35;24.10;65.70
2497;DHT22;1259;48.306;14.374;2023-05-29T13:01:01;24.10;63.90
2497;DHT22;1259;48.306;14.374;2023-05-29T13:03:28;23.90;63.80
2497;DHT22;1259;48.306;14.374;2023-05-29T13:05:56;23.80;64.70
2497;DHT22;1259;48.306;14.374;2023-05-29T13:08:23;23.70;61.80
2497;DHT22;1259;48.306;14.374;2023-05-29T13:10:50;23.80;63.20
2497;DHT22;1259;48.306;14.374;2023-05-29T13:13:16;23.90;63.80
2497;DHT22;1259;48.306;14.374;2023-05-29T13:15:43;24.30;66.40
2497;DHT22;1259;48.306;14.374;2023-05-29T13:18:10;24.00;63.40
2497;DHT22;1259;48.306;14.374;2023-05-29T13:20:37;24.20;63.80
2497;DHT22;1259;48.306;14.374;2023-05-29T13:23:05;24.00;65.00
2497;DHT22;1259;48.306;14.374;2023-05-29T13:25:32;24.10;64.80
2497;DHT22;1259;48.306;14.374;2023-05-29T13:27:59;24.30;65.80
2497;DHT22;1259;48.306;14.374;2023-05-29T13:30:25;24.50;65.10
2497;DHT22;1259;48.306;14.374;2023-05-29T13:32:52;24.60;64.20
2497;DHT22;1259;48.306;14.374;2023-05-29T13:35:19;24.70;65.30
2497;DHT22;1259;48.306;14.374;2023-05-29T13:37:46;23.60;63.00
2497;DHT22;1259;48.306;14.374;2023-05-29T13:40:14;23.40;64.00
2497;DHT22;1259;48.306;14.374;2023-05-29T13:42:41;23.40;63.40
2497;DHT22;1259;48.306;14.374;2023-05-29T13:45:08;23.70;63.90
2497;DHT22;1259;48.306;14.374;2023-05-29T13:47:37;23.80;63.10
2497;DHT22;1259;48.306;14.374;2023-05-29T13:50:04;23.90;64.20
2497;DHT22;1259;48.306;14.374;2023-05-29T13:52:30;24.10;64.10
2497;DHT22;1259;48.306;14.374;2023-05-29T13:54:57;24.00;62.10
2497;DHT22;1259;48.306;14.374;2023-05-29T13:57:28;24.10;64.10
2497;DHT22;1259;48.306;14.374;2023-05-29T13:59:56;24.20;64.20
2497;DHT22;1259;48.306;14.374;2023-05-29T14:02:23;24.10;63.20
2497;DHT22;1259;48.306;14.374;2023-05-29T14:04:50;23.90;60.80
2497;DHT22;1259;48.306;14.374;2023-05-29T14:07:17;24.20;61.30
2497;DHT22;1259;48.306;14.374;2023-05-29T14:09:43;24.40;63.30
2497;DHT22;1259;48.306;14.374;2023-05-29T14:12:10;24.40;63.90
2497;DHT22;1259;48.306;14.374;2023-05-29T14:14:38;24.40;66.40
2497;DHT22;1259;48.306;14.374;2023-05-29T14:17:05;24.50;64.90
2497;DHT22;1259;48.306;14.374;2023-05-29T14:19:32;24.20;63.70
2497;DHT22;1259;48.306;14.374;2023-05-29T14:21:58;24.10;65.50
2497;DHT22;1259;48.306;14.374;2023-05-29T14:24:26;23.80;65.40
2497;DHT22;1259;48.306;14.374;2023-05-29T14:26:52;23.90;64.80
2497;DHT22;1259;48.306;14.374;2023-05-29T14:29:19;24.00;65.40
2497;DHT22;1259;48.306;14.374;2023-05-29T14:31:47;24.10;65.20
2497;DHT22;1259;48.306;14.374;2023-05-29T14:34:14;24.30;66.40
2497;DHT22;1259;48.306;14.374;2023-05-29T14:36:41;24.30;64.50
2497;DHT22;1259;48.306;14.374;2023-05-29T14:39:09;23.50;65.20
2497;DHT22;1259;48.306;14.374;2023-05-29T14:41:37;23.60;66.90
2497;DHT22;1259;48.306;14.374;2023-05-29T14:44:03;23.40;62.40
2497;DHT22;1259;48.306;14.374;2023-05-29T14:46:30;23.50;63.30
2497;DHT22;1259;48.306;14.374;2023-05-29T14:48:59;23.40;65.60
2497;DHT22;1259;48.306;14.374;2023-05-29T14:51:26;23.20;61.70
2497;DHT22;1259;48.306;14.374;2023-05-29T14:53:52;23.50;62.80
2497;DHT22;1259;48.306;14.374;2023-05-29T14:56:19;23.70;62.90
2497;DHT22;1259;48.306;14.374;2023-05-29T14:58:46;23.80;61.40
2497;DHT22;1259;48.306;14.374;2023-05-29T15:01:14;23.50;60.60
2497;DHT22;1259;48.306;14.374;2023-05-29T15:03:41;23.40;62.70
2497;DHT22;1259;48.306;14.374;2023-05-29T15:06:10;23.30;61.60
2497;DHT22;1259;48.306;14.374;2023-05-29T15:08:38;23.20;64.40
2497;DHT22;1259;48.306;14.374;2023-05-29T15:11:05;23.00;60.10
2497;DHT22;1259;48.306;14.374;2023-05-29T15:13:32;23.00;58.00
2497;DHT22;1259;48.306;14.374;2023-05-29T15:15:58;23.00;59.00
2497;DHT22;1259;48.306;14.374;2023-05-29T15:18:25;23.10;60.80
2497;DHT22;1259;48.306;14.374;2023-05-29T15:20:52;23.00;58.90
2497;DHT22;1259;48.306;14.374;2023-05-29T15:23:21;23.10;61.60
2497;DHT22;1259;48.306;14.374;2023-05-29T15:25:48;23.10;60.90
2497;DHT22;1259;48.306;14.374;2023-05-29T15:28:15;23.10;57.40
2497;DHT22;1259;48.306;14.374;2023-05-29T15:30:42;23.10;59.30
2497;DHT22;1259;48.306;14.374;2023-05-29T15:33:08;23.10;62.10
2497;DHT22;1259;48.306;14.374;2023-05-29T15:35:37;23.30;62.30
2497;DHT22;1259;48.306;14.374;2023-05-29T15:38:04;23.20;59.70
2497;DHT22;1259;48.306;14.374;2023-05-29T15:40:32;23.10;60.90
2497;DHT22;1259;48.306;14.374;2023-05-29T15:42:59;23.20;58.40
2497;DHT22;1259;48.306;14.374;2023-05-29T15:45:26;23.00;58.20
2497;DHT22;1259;48.306;14.374;2023-05-29T15:47:53;22.70;59.40
2497;DHT22;1259;48.306;14.374;2023-05-29T15:50:19;22.70;59.90
2497;DHT22;1259;48.306;14.374;2023-05-29T15:52:47;22.70;62.00